Main page
METAR-TAF:

METAR-TAF

Airports :

Astor Piazzolla International Airport

Mar del Plata, Argentina

latitude: 37-56S, longitude: 057-35W, elevation: 18 m

Current weather observation

The report was made 26 minutes ago, at 10:25 UTC
Calm wind
Temperature 3°C
Humidity 100%
Pressure 1024 hPa
Visibility: 0300 m
fog

METAR: SAZM 091025Z 00000KT 0300 R13/0500 FG NSC 03/03 Q1024

Time: 07:51 (10:51 UTC)

Forecast

The report was made 5 hours and 51 minutes ago, at 05:00 UTC
Forecast valid from 09 at 06 UTC to 10 at 06 UTC
Wind 5 kt from the North/Northeast
Visibility 10 km or more
no clouds below 1500 m and no cumulonimbus
Becoming
from 09 at 07 UTC to 09 at 09 UTC
Wind 5 kt from the North/Northeast
Visibility: 4000 m
Broken clouds at a height of 2000 ft
mist
Becoming
from 09 at 11 UTC to 09 at 13 UTC
Wind 10 kt from the North
Visibility 10 km or more
no clouds below 1500 m and no cumulonimbus

TAF: SAZM 090500Z 0906/1006 02005KT CAVOK TX17/0918Z TN07/0910Z BECMG 0907/0909 02005KT 4000 BR BKN020 BECMG 0911/0913 36010KT CAVOK

Weather observations and forecasts of more than 4000 airports (METAR and TAF reports).

The available stations are represented by yellow and red dots on the map.

Hover mouse over dot to see the name of the station.

Then click to see weather observations and forecasts.

To change the map : click on the green buttons with a black cross to zoom in, on the green button with a dash to zoom out, or on the green arrows for adjacent maps.


METAR-TAF: